Ergebnisliste vom: 10.09.2011 - Tharandter Waldlauf2011 - 30 km

weitere Ergebnisse >>

Platz Pl.m Pl.w Stnr. Name,Vorname Verein GJ Ak AKm AKw Endzeit Rückst. Schule
1 1   104 Bram, Andreas Skiklub Dresden-Niedersedlitz 66 M35/45 1   2:03:40 0:00:00  
2 2   107 Dander, Bernd RC 1898 Radeberg 65 M35/45 2   2:11:57 0:08:17  
3   1 114 Kranich, Franziska OL Görlitz 84 W20/30   1 2:16:16 0:12:36  
4 3   127 Wewetzer, Sven TSV Flöha 1848 66 M35/45 3   2:16:25 0:12:45  
5 4   142 Martin, Sebastian Super Red Foxx Stars 79 M20/30 1   2:18:00 0:14:20  
6 5   120 Noack, Alexander Temple Gym Dresden 76 M35/45 4   2:18:36 0:14:56  
7 6   144 Niese, Toralf LSV Dresden 71 M35/45 5   2:19:34 0:15:54  
8 7   145 Tobar, Leonardo Team Erdinger Alkoholfrei 60 M50+ 1   2:20:36 0:16:56  
9 8   129 Zentsch, Uwe TSV Dresden 62 M35/45 6   2:25:13 0:21:33  
10 9   113 Koch, Felix TU - Bergakademie Freiberg 86 M20/30 2   2:28:01 0:24:21  
11 10   139 Helbig, Alexander SBB Dresden 79 M20/30 3   2:29:44 0:26:04  
12 11   136 Lohr, Markus TU Dresden 70 M35/45 7   2:32:39 0:28:59  
13   2 138 Menzel, Diana Streifenhörnchen Pirna 75 W35/45   1 2:33:48 0:30:08  
14 12   131 Uhlemann, Enrico Voigtsdorf 69 M35/45 8   2:35:26 0:31:46  
15 13   126 Waitschies, Tino Dresden 63 M35/45 9   2:36:38 0:32:58  
16   3 134 Walther, Juliane Deutsche Vermögensberatung 87 W20/30   2 2:37:07 0:33:27  
17 14   135 Schmidt, Reinhardt Laufszene-Sachsen.de 85 M20/30 4   2:37:08 0:33:28  
18 15   118 MĂŒhlberg, Frank Dresden 69 M35/45 10   2:37:46 0:34:06  
19 16   101 Augsburg, Thomas Dresden 66 M35/45 11   2:40:31 0:36:51  
20 17   132 Neudeck, Mario Dresden 66 M35/45 12   2:41:46 0:38:06  
21 18   137 Bertelsmeier, Dr. Marcus New Holland 74 M35/45 13   2:43:32 0:39:52  
22 19   140 Heinicke, Wallfried SV Traktor Naundorf 49 M50+ 2   2:44:26 0:40:46  
23 20   111 Grimm, Mario Volkssport 59 M50+ 3   2:48:03 0:44:23  
24 21   121 Pitcha, Andreas Volkssport Grumbach 59 M50+ 4   2:50:09 0:46:29  
25 22   133 Kupfer, Volker Grimma 64 M35/45 14   2:52:51 0:49:11  
26 23   141 Oswald, Manfred Tharandt 64 M35/45 15   2:54:45 0:51:05  
27   4 108 Daoudi, Malika Kiebitzstampfer 84 W20/30   3 2:55:44 0:52:04  
28 24   106 Daemmig, Matthias Meissen 77 M20/30 5   2:55:50 0:52:10  
29   5 112 Hecht, Stephanie Vfl Dresden BĂŒhlau 86 W20/30   4 2:58:49 0:55:09  
30   6 117 Lehmann, Ute Laufgruppe Mohorn- Grund 65 W35/45   2 3:01:36 0:57:56  
31 25   143 Bartsch, Ronald Pließkowitz 63 M35/45 16   3:06:46 1:03:06  
32   7 125 Trautmann, Lisa Dresden 77 W20/30   5 3:08:08 1:04:28  
33 26   122 Reitzler, Juergen Spargelsprinter Burgdorf 69 M35/45 17   3:10:56 1:07:16  
34 27   116 Lagodzki, Ralf-Tino Leipzig 64 M35/45 18   3:14:07 1:10:27  
35 28   115 Kuhn, Heiko Team Erdinger Alkoholfrei 58 M50+ 5   3:14:44 1:11:04  
36 29   124 Schultz, Thomas DAV 60 M50+ 6   3:18:49 1:15:09  
37   8 103 Börner, Jana Friedewald 71 W35/45   3 3:40:31 1:36:51  
(c) 1990-2020 Blue Wonder Sport Promotion - Andreas Burow - Zeitnahme & Auswertung - www.Triathlon-Service.de